sensor_id;sensor_type;location;lat;lon;timestamp;temperature;humidity
8707;DHT22;4390;49.302;9.306;2023-07-13T00:00:47;24.50;82.10
8707;DHT22;4390;49.302;9.306;2023-07-13T00:03:14;24.50;82.10
8707;DHT22;4390;49.302;9.306;2023-07-13T00:05:41;24.60;82.00
8707;DHT22;4390;49.302;9.306;2023-07-13T00:08:08;24.60;81.90
8707;DHT22;4390;49.302;9.306;2023-07-13T00:10:42;24.60;81.80
8707;DHT22;4390;49.302;9.306;2023-07-13T00:13:09;24.60;81.90
8707;DHT22;4390;49.302;9.306;2023-07-13T00:15:36;24.50;82.00
8707;DHT22;4390;49.302;9.306;2023-07-13T00:18:02;24.60;81.90
8707;DHT22;4390;49.302;9.306;2023-07-13T00:20:29;24.60;81.80
8707;DHT22;4390;49.302;9.306;2023-07-13T00:22:56;24.60;81.80
8707;DHT22;4390;49.302;9.306;2023-07-13T00:25:24;24.50;81.80
8707;DHT22;4390;49.302;9.306;2023-07-13T00:27:51;24.60;81.70
8707;DHT22;4390;49.302;9.306;2023-07-13T00:30:18;24.50;81.70
8707;DHT22;4390;49.302;9.306;2023-07-13T00:32:44;24.50;81.70
8707;DHT22;4390;49.302;9.306;2023-07-13T00:35:13;24.50;81.60
8707;DHT22;4390;49.302;9.306;2023-07-13T00:37:40;24.50;81.60
8707;DHT22;4390;49.302;9.306;2023-07-13T00:40:08;24.50;81.50
8707;DHT22;4390;49.302;9.306;2023-07-13T00:42:37;24.50;81.50
8707;DHT22;4390;49.302;9.306;2023-07-13T00:47:39;24.40;81.70
8707;DHT22;4390;49.302;9.306;2023-07-13T00:50:12;24.40;81.70
8707;DHT22;4390;49.302;9.306;2023-07-13T00:52:43;24.30;81.70
8707;DHT22;4390;49.302;9.306;2023-07-13T00:55:12;24.30;81.70
8707;DHT22;4390;49.302;9.306;2023-07-13T00:57:39;24.30;81.50
8707;DHT22;4390;49.302;9.306;2023-07-13T01:00:07;24.30;81.40
8707;DHT22;4390;49.302;9.306;2023-07-13T01:02:38;24.30;81.30
8707;DHT22;4390;49.302;9.306;2023-07-13T01:05:14;24.30;81.30
8707;DHT22;4390;49.302;9.306;2023-07-13T01:07:43;24.30;81.20
8707;DHT22;4390;49.302;9.306;2023-07-13T01:10:12;24.20;81.10
8707;DHT22;4390;49.302;9.306;2023-07-13T01:12:39;24.20;81.10
8707;DHT22;4390;49.302;9.306;2023-07-13T01:18:00;24.10;81.00
8707;DHT22;4390;49.302;9.306;2023-07-13T01:20:27;24.10;81.00
8707;DHT22;4390;49.302;9.306;2023-07-13T01:22:54;24.20;80.70
8707;DHT22;4390;49.302;9.306;2023-07-13T01:25:21;24.10;80.50
8707;DHT22;4390;49.302;9.306;2023-07-13T01:27:48;24.10;80.50
8707;DHT22;4390;49.302;9.306;2023-07-13T01:30:15;24.10;80.40
8707;DHT22;4390;49.302;9.306;2023-07-13T01:32:41;24.00;80.40
8707;DHT22;4390;49.302;9.306;2023-07-13T01:35:08;24.00;80.40
8707;DHT22;4390;49.302;9.306;2023-07-13T01:37:36;24.00;80.30
8707;DHT22;4390;49.302;9.306;2023-07-13T01:40:04;24.00;80.20
8707;DHT22;4390;49.302;9.306;2023-07-13T01:42:31;24.00;80.10
8707;DHT22;4390;49.302;9.306;2023-07-13T01:44:58;23.90;80.20
8707;DHT22;4390;49.302;9.306;2023-07-13T01:47:25;23.90;80.20
8707;DHT22;4390;49.302;9.306;2023-07-13T01:49:53;23.90;80.20
8707;DHT22;4390;49.302;9.306;2023-07-13T01:52:19;23.90;80.20
8707;DHT22;4390;49.302;9.306;2023-07-13T01:54:46;24.00;80.10
8707;DHT22;4390;49.302;9.306;2023-07-13T01:57:16;23.90;80.20
8707;DHT22;4390;49.302;9.306;2023-07-13T01:59:43;24.00;80.10
8707;DHT22;4390;49.302;9.306;2023-07-13T02:02:09;23.90;80.10
8707;DHT22;4390;49.302;9.306;2023-07-13T02:04:36;23.90;80.10
8707;DHT22;4390;49.302;9.306;2023-07-13T02:07:03;24.00;80.00
8707;DHT22;4390;49.302;9.306;2023-07-13T02:09:30;23.90;80.00
8707;DHT22;4390;49.302;9.306;2023-07-13T02:11:57;23.90;79.90
8707;DHT22;4390;49.302;9.306;2023-07-13T02:14:30;23.90;79.90
8707;DHT22;4390;49.302;9.306;2023-07-13T02:16:56;23.90;79.90
8707;DHT22;4390;49.302;9.306;2023-07-13T02:19:23;23.90;79.80
8707;DHT22;4390;49.302;9.306;2023-07-13T02:21:50;23.90;79.80
8707;DHT22;4390;49.302;9.306;2023-07-13T02:24:17;23.90;79.70
8707;DHT22;4390;49.302;9.306;2023-07-13T02:26:46;23.80;79.70
8707;DHT22;4390;49.302;9.306;2023-07-13T02:29:13;23.70;79.80
8707;DHT22;4390;49.302;9.306;2023-07-13T02:31:40;23.70;79.70
8707;DHT22;4390;49.302;9.306;2023-07-13T02:34:07;23.70;79.70
8707;DHT22;4390;49.302;9.306;2023-07-13T02:36:36;23.70;79.60
8707;DHT22;4390;49.302;9.306;2023-07-13T02:39:04;23.80;79.50
8707;DHT22;4390;49.302;9.306;2023-07-13T02:41:35;23.80;79.50
8707;DHT22;4390;49.302;9.306;2023-07-13T02:44:02;23.80;79.50
8707;DHT22;4390;49.302;9.306;2023-07-13T02:46:31;23.70;79.50
8707;DHT22;4390;49.302;9.306;2023-07-13T02:48:58;23.70;79.50
8707;DHT22;4390;49.302;9.306;2023-07-13T02:51:25;23.60;79.40
8707;DHT22;4390;49.302;9.306;2023-07-13T02:53:52;23.70;79.30
8707;DHT22;4390;49.302;9.306;2023-07-13T02:56:24;23.60;79.30
8707;DHT22;4390;49.302;9.306;2023-07-13T02:58:52;23.60;79.30
8707;DHT22;4390;49.302;9.306;2023-07-13T03:01:19;23.60;79.20
8707;DHT22;4390;49.302;9.306;2023-07-13T03:03:48;23.60;79.20
8707;DHT22;4390;49.302;9.306;2023-07-13T03:06:17;23.60;79.20
8707;DHT22;4390;49.302;9.306;2023-07-13T03:08:49;23.60;79.00
8707;DHT22;4390;49.302;9.306;2023-07-13T03:11:18;23.60;79.00
8707;DHT22;4390;49.302;9.306;2023-07-13T03:13:52;23.60;78.90
8707;DHT22;4390;49.302;9.306;2023-07-13T03:16:20;23.60;78.90
8707;DHT22;4390;49.302;9.306;2023-07-13T03:18:49;23.50;79.10
8707;DHT22;4390;49.302;9.306;2023-07-13T03:21:16;23.50;78.70
8707;DHT22;4390;49.302;9.306;2023-07-13T03:23:43;23.40;78.30
8707;DHT22;4390;49.302;9.306;2023-07-13T03:26:13;23.20;78.30
8707;DHT22;4390;49.302;9.306;2023-07-13T03:28:41;23.00;78.60
8707;DHT22;4390;49.302;9.306;2023-07-13T03:31:18;22.80;78.90
8707;DHT22;4390;49.302;9.306;2023-07-13T03:33:46;22.70;79.30
8707;DHT22;4390;49.302;9.306;2023-07-13T03:36:27;22.50;79.40
8707;DHT22;4390;49.302;9.306;2023-07-13T03:38:58;22.40;79.70
8707;DHT22;4390;49.302;9.306;2023-07-13T03:41:33;22.30;79.90
8707;DHT22;4390;49.302;9.306;2023-07-13T03:44:00;22.20;79.90
8707;DHT22;4390;49.302;9.306;2023-07-13T03:46:27;22.20;79.80
8707;DHT22;4390;49.302;9.306;2023-07-13T03:48:56;22.10;79.90
8707;DHT22;4390;49.302;9.306;2023-07-13T03:51:22;22.00;79.80
8707;DHT22;4390;49.302;9.306;2023-07-13T03:53:49;22.00;79.90
8707;DHT22;4390;49.302;9.306;2023-07-13T03:56:19;22.00;79.80
8707;DHT22;4390;49.302;9.306;2023-07-13T03:58:48;22.00;79.70
8707;DHT22;4390;49.302;9.306;2023-07-13T04:01:21;22.00;79.60
8707;DHT22;4390;49.302;9.306;2023-07-13T04:03:49;22.00;79.50
8707;DHT22;4390;49.302;9.306;2023-07-13T04:06:26;21.90;79.60
8707;DHT22;4390;49.302;9.306;2023-07-13T04:08:55;21.90;79.80
8707;DHT22;4390;49.302;9.306;2023-07-13T04:11:23;21.90;79.80
8707;DHT22;4390;49.302;9.306;2023-07-13T04:13:51;21.80;79.80
8707;DHT22;4390;49.302;9.306;2023-07-13T04:16:19;21.80;79.90
8707;DHT22;4390;49.302;9.306;2023-07-13T04:18:47;21.70;80.00
8707;DHT22;4390;49.302;9.306;2023-07-13T04:21:16;21.70;80.00
8707;DHT22;4390;49.302;9.306;2023-07-13T04:23:43;21.60;80.20
8707;DHT22;4390;49.302;9.306;2023-07-13T04:26:10;21.60;80.20
8707;DHT22;4390;49.302;9.306;2023-07-13T04:28:37;21.60;80.20
8707;DHT22;4390;49.302;9.306;2023-07-13T04:31:04;21.60;80.20
8707;DHT22;4390;49.302;9.306;2023-07-13T04:33:31;21.60;80.30
8707;DHT22;4390;49.302;9.306;2023-07-13T04:35:58;21.60;80.40
8707;DHT22;4390;49.302;9.306;2023-07-13T04:38:28;21.60;80.20
8707;DHT22;4390;49.302;9.306;2023-07-13T04:40:57;21.70;80.10
8707;DHT22;4390;49.302;9.306;2023-07-13T04:43:24;21.60;80.10
8707;DHT22;4390;49.302;9.306;2023-07-13T04:45:51;21.50;80.40
8707;DHT22;4390;49.302;9.306;2023-07-13T04:48:19;21.50;80.60
8707;DHT22;4390;49.302;9.306;2023-07-13T04:50:47;21.30;81.00
8707;DHT22;4390;49.302;9.306;2023-07-13T04:53:14;21.30;81.20
8707;DHT22;4390;49.302;9.306;2023-07-13T04:55:40;21.30;81.40
8707;DHT22;4390;49.302;9.306;2023-07-13T04:58:07;21.30;81.40
8707;DHT22;4390;49.302;9.306;2023-07-13T05:00:34;21.30;81.30
8707;DHT22;4390;49.302;9.306;2023-07-13T05:03:00;21.30;81.80
8707;DHT22;4390;49.302;9.306;2023-07-13T05:05:27;21.20;82.20
8707;DHT22;4390;49.302;9.306;2023-07-13T05:07:54;21.10;82.30
8707;DHT22;4390;49.302;9.306;2023-07-13T05:10:21;21.10;82.40
8707;DHT22;4390;49.302;9.306;2023-07-13T05:12:48;21.00;82.70
8707;DHT22;4390;49.302;9.306;2023-07-13T05:15:15;21.00;82.60
8707;DHT22;4390;49.302;9.306;2023-07-13T05:17:42;20.90;82.80
8707;DHT22;4390;49.302;9.306;2023-07-13T05:20:09;20.90;82.60
8707;DHT22;4390;49.302;9.306;2023-07-13T05:22:36;20.80;82.90
8707;DHT22;4390;49.302;9.306;2023-07-13T05:25:05;20.80;82.90
8707;DHT22;4390;49.302;9.306;2023-07-13T05:27:33;20.90;82.70
8707;DHT22;4390;49.302;9.306;2023-07-13T05:30:00;21.00;82.50
8707;DHT22;4390;49.302;9.306;2023-07-13T05:32:26;21.10;82.40
8707;DHT22;4390;49.302;9.306;2023-07-13T05:34:53;21.20;82.40
8707;DHT22;4390;49.302;9.306;2023-07-13T05:37:20;21.30;82.40
8707;DHT22;4390;49.302;9.306;2023-07-13T05:39:47;21.30;82.30
8707;DHT22;4390;49.302;9.306;2023-07-13T05:42:14;21.40;82.20
8707;DHT22;4390;49.302;9.306;2023-07-13T05:44:40;21.40;82.20
8707;DHT22;4390;49.302;9.306;2023-07-13T05:47:07;21.40;82.10
8707;DHT22;4390;49.302;9.306;2023-07-13T05:49:34;21.50;82.10
8707;DHT22;4390;49.302;9.306;2023-07-13T05:52:01;21.50;82.40
8707;DHT22;4390;49.302;9.306;2023-07-13T05:54:27;21.50;82.60
8707;DHT22;4390;49.302;9.306;2023-07-13T05:56:55;21.50;82.70
8707;DHT22;4390;49.302;9.306;2023-07-13T05:59:22;21.50;82.90
8707;DHT22;4390;49.302;9.306;2023-07-13T06:01:49;21.40;83.00
8707;DHT22;4390;49.302;9.306;2023-07-13T06:04:16;21.50;83.10
8707;DHT22;4390;49.302;9.306;2023-07-13T06:06:43;21.40;83.20
8707;DHT22;4390;49.302;9.306;2023-07-13T06:09:09;21.40;83.20
8707;DHT22;4390;49.302;9.306;2023-07-13T06:11:36;21.40;83.30
8707;DHT22;4390;49.302;9.306;2023-07-13T06:14:03;21.40;83.30
8707;DHT22;4390;49.302;9.306;2023-07-13T06:16:30;21.50;83.20
8707;DHT22;4390;49.302;9.306;2023-07-13T06:18:57;21.50;83.30
8707;DHT22;4390;49.302;9.306;2023-07-13T06:21:24;21.50;83.20
8707;DHT22;4390;49.302;9.306;2023-07-13T06:23:51;21.50;83.20
8707;DHT22;4390;49.302;9.306;2023-07-13T06:26:20;21.60;83.20
8707;DHT22;4390;49.302;9.306;2023-07-13T06:28:47;21.60;83.20
8707;DHT22;4390;49.302;9.306;2023-07-13T06:31:15;21.60;83.20
8707;DHT22;4390;49.302;9.306;2023-07-13T06:33:43;21.60;83.10
8707;DHT22;4390;49.302;9.306;2023-07-13T06:36:10;21.70;83.10
8707;DHT22;4390;49.302;9.306;2023-07-13T06:38:38;21.70;83.00
8707;DHT22;4390;49.302;9.306;2023-07-13T06:41:06;21.70;83.00
8707;DHT22;4390;49.302;9.306;2023-07-13T06:43:33;21.70;83.10
8707;DHT22;4390;49.302;9.306;2023-07-13T06:46:00;21.70;83.20
8707;DHT22;4390;49.302;9.306;2023-07-13T06:48:27;21.70;83.40
8707;DHT22;4390;49.302;9.306;2023-07-13T06:50:54;21.70;83.30
8707;DHT22;4390;49.302;9.306;2023-07-13T06:53:21;21.70;83.20
8707;DHT22;4390;49.302;9.306;2023-07-13T06:55:49;21.70;83.20
8707;DHT22;4390;49.302;9.306;2023-07-13T06:58:17;21.60;83.20
8707;DHT22;4390;49.302;9.306;2023-07-13T07:00:44;21.60;83.10
8707;DHT22;4390;49.302;9.306;2023-07-13T07:03:12;21.60;82.90
8707;DHT22;4390;49.302;9.306;2023-07-13T07:05:38;21.70;82.60
8707;DHT22;4390;49.302;9.306;2023-07-13T07:08:05;21.70;82.50
8707;DHT22;4390;49.302;9.306;2023-07-13T07:10:33;21.70;82.40
8707;DHT22;4390;49.302;9.306;2023-07-13T07:13:00;21.80;82.10
8707;DHT22;4390;49.302;9.306;2023-07-13T07:15:28;21.80;82.10
8707;DHT22;4390;49.302;9.306;2023-07-13T07:17:54;21.80;82.00
8707;DHT22;4390;49.302;9.306;2023-07-13T07:20:21;21.80;82.00
8707;DHT22;4390;49.302;9.306;2023-07-13T07:22:48;21.80;81.90
8707;DHT22;4390;49.302;9.306;2023-07-13T07:25:16;21.80;81.80
8707;DHT22;4390;49.302;9.306;2023-07-13T07:27:42;21.90;81.50
8707;DHT22;4390;49.302;9.306;2023-07-13T07:30:12;21.80;81.40
8707;DHT22;4390;49.302;9.306;2023-07-13T07:32:42;21.90;81.30
8707;DHT22;4390;49.302;9.306;2023-07-13T07:35:23;21.90;81.20
8707;DHT22;4390;49.302;9.306;2023-07-13T07:37:50;22.00;81.10
8707;DHT22;4390;49.302;9.306;2023-07-13T07:40:18;22.00;80.80
8707;DHT22;4390;49.302;9.306;2023-07-13T07:42:47;22.10;80.40
8707;DHT22;4390;49.302;9.306;2023-07-13T07:45:14;22.10;80.30
8707;DHT22;4390;49.302;9.306;2023-07-13T07:47:41;22.10;80.00
8707;DHT22;4390;49.302;9.306;2023-07-13T07:50:09;22.10;79.90
8707;DHT22;4390;49.302;9.306;2023-07-13T07:52:36;22.20;79.80
8707;DHT22;4390;49.302;9.306;2023-07-13T07:55:05;22.20;79.50
8707;DHT22;4390;49.302;9.306;2023-07-13T07:57:35;22.20;79.40
8707;DHT22;4390;49.302;9.306;2023-07-13T08:00:05;22.20;79.20
8707;DHT22;4390;49.302;9.306;2023-07-13T08:02:40;22.20;79.10
8707;DHT22;4390;49.302;9.306;2023-07-13T08:05:27;22.20;78.90
8707;DHT22;4390;49.302;9.306;2023-07-13T08:07:57;22.30;78.60
8707;DHT22;4390;49.302;9.306;2023-07-13T08:10:24;22.30;78.40
8707;DHT22;4390;49.302;9.306;2023-07-13T08:12:51;22.30;78.30
8707;DHT22;4390;49.302;9.306;2023-07-13T08:15:20;22.30;78.10
8707;DHT22;4390;49.302;9.306;2023-07-13T08:17:48;22.40;78.00
8707;DHT22;4390;49.302;9.306;2023-07-13T08:20:15;22.50;77.90
8707;DHT22;4390;49.302;9.306;2023-07-13T08:22:42;22.50;77.70
8707;DHT22;4390;49.302;9.306;2023-07-13T08:25:09;22.50;77.70
8707;DHT22;4390;49.302;9.306;2023-07-13T08:27:36;22.50;77.80
8707;DHT22;4390;49.302;9.306;2023-07-13T08:30:03;22.50;77.80
8707;DHT22;4390;49.302;9.306;2023-07-13T08:32:30;22.60;77.70
8707;DHT22;4390;49.302;9.306;2023-07-13T08:34:57;22.70;77.50
8707;DHT22;4390;49.302;9.306;2023-07-13T08:37:23;22.70;77.30
8707;DHT22;4390;49.302;9.306;2023-07-13T08:39:50;22.70;77.00
8707;DHT22;4390;49.302;9.306;2023-07-13T08:42:40;22.70;76.90
8707;DHT22;4390;49.302;9.306;2023-07-13T08:45:22;22.80;76.80
8707;DHT22;4390;49.302;9.306;2023-07-13T08:50:32;22.80;76.40
8707;DHT22;4390;49.302;9.306;2023-07-13T08:53:20;22.80;76.40
8707;DHT22;4390;49.302;9.306;2023-07-13T08:55:48;22.90;76.40
8707;DHT22;4390;49.302;9.306;2023-07-13T08:58:17;23.00;75.90
8707;DHT22;4390;49.302;9.306;2023-07-13T09:00:55;23.00;76.00
8707;DHT22;4390;49.302;9.306;2023-07-13T09:03:30;23.10;75.50
8707;DHT22;4390;49.302;9.306;2023-07-13T09:06:02;23.10;75.40
8707;DHT22;4390;49.302;9.306;2023-07-13T09:08:48;23.10;74.90
8707;DHT22;4390;49.302;9.306;2023-07-13T09:11:43;23.20;75.00
8707;DHT22;4390;49.302;9.306;2023-07-13T09:14:43;23.20;75.10
8707;DHT22;4390;49.302;9.306;2023-07-13T09:17:27;23.20;74.30
8707;DHT22;4390;49.302;9.306;2023-07-13T09:20:25;23.20;74.20
8707;DHT22;4390;49.302;9.306;2023-07-13T09:22:53;23.40;74.10
8707;DHT22;4390;49.302;9.306;2023-07-13T09:25:29;23.40;73.80
8707;DHT22;4390;49.302;9.306;2023-07-13T09:28:00;23.50;73.70
8707;DHT22;4390;49.302;9.306;2023-07-13T09:30:34;23.50;73.70
8707;DHT22;4390;49.302;9.306;2023-07-13T09:33:03;23.50;73.20
8707;DHT22;4390;49.302;9.306;2023-07-13T09:35:31;23.50;73.30
8707;DHT22;4390;49.302;9.306;2023-07-13T09:38:19;23.50;73.40
8707;DHT22;4390;49.302;9.306;2023-07-13T09:41:18;23.60;73.10
8707;DHT22;4390;49.302;9.306;2023-07-13T09:44:08;23.60;73.10
8707;DHT22;4390;49.302;9.306;2023-07-13T09:46:36;23.60;72.70
8707;DHT22;4390;49.302;9.306;2023-07-13T09:49:03;23.60;72.70
8707;DHT22;4390;49.302;9.306;2023-07-13T09:51:30;23.70;72.50
8707;DHT22;4390;49.302;9.306;2023-07-13T09:53:56;23.70;72.20
8707;DHT22;4390;49.302;9.306;2023-07-13T09:56:27;23.80;72.30
8707;DHT22;4390;49.302;9.306;2023-07-13T09:58:55;23.80;72.20
8707;DHT22;4390;49.302;9.306;2023-07-13T10:01:33;23.80;71.80
8707;DHT22;4390;49.302;9.306;2023-07-13T10:04:00;23.80;71.60
8707;DHT22;4390;49.302;9.306;2023-07-13T10:06:27;23.90;71.50
8707;DHT22;4390;49.302;9.306;2023-07-13T10:08:56;23.90;71.40
8707;DHT22;4390;49.302;9.306;2023-07-13T10:11:28;23.90;71.60
8707;DHT22;4390;49.302;9.306;2023-07-13T10:13:57;24.00;71.30
8707;DHT22;4390;49.302;9.306;2023-07-13T10:16:28;23.90;71.40
8707;DHT22;4390;49.302;9.306;2023-07-13T10:19:05;23.90;71.30
8707;DHT22;4390;49.302;9.306;2023-07-13T10:21:42;24.00;71.40
8707;DHT22;4390;49.302;9.306;2023-07-13T10:24:17;23.90;71.50
8707;DHT22;4390;49.302;9.306;2023-07-13T10:27:05;23.90;71.60
8707;DHT22;4390;49.302;9.306;2023-07-13T10:29:40;23.90;71.70
8707;DHT22;4390;49.302;9.306;2023-07-13T10:32:11;24.00;71.50
8707;DHT22;4390;49.302;9.306;2023-07-13T10:34:40;24.00;71.30
8707;DHT22;4390;49.302;9.306;2023-07-13T10:37:19;24.00;70.80
8707;DHT22;4390;49.302;9.306;2023-07-13T10:39:47;24.00;71.20
8707;DHT22;4390;49.302;9.306;2023-07-13T10:42:21;24.10;70.80
8707;DHT22;4390;49.302;9.306;2023-07-13T10:44:50;24.10;70.60
8707;DHT22;4390;49.302;9.306;2023-07-13T10:47:17;24.00;70.50
8707;DHT22;4390;49.302;9.306;2023-07-13T10:49:50;24.10;70.40
8707;DHT22;4390;49.302;9.306;2023-07-13T10:52:48;24.20;70.10
8707;DHT22;4390;49.302;9.306;2023-07-13T10:55:40;24.20;69.90
8707;DHT22;4390;49.302;9.306;2023-07-13T10:58:43;24.20;69.80
8707;DHT22;4390;49.302;9.306;2023-07-13T11:01:17;24.20;69.90
8707;DHT22;4390;49.302;9.306;2023-07-13T11:04:02;24.20;70.10
8707;DHT22;4390;49.302;9.306;2023-07-13T11:06:34;24.10;70.00
8707;DHT22;4390;49.302;9.306;2023-07-13T11:09:36;24.10;70.00
8707;DHT22;4390;49.302;9.306;2023-07-13T11:15:03;24.10;70.20
8707;DHT22;4390;49.302;9.306;2023-07-13T11:17:37;24.10;70.10
8707;DHT22;4390;49.302;9.306;2023-07-13T11:22:51;24.10;70.00
8707;DHT22;4390;49.302;9.306;2023-07-13T11:33:22;24.20;69.90
8707;DHT22;4390;49.302;9.306;2023-07-13T11:35:57;24.10;70.10
8707;DHT22;4390;49.302;9.306;2023-07-13T11:41:06;24.10;70.00
8707;DHT22;4390;49.302;9.306;2023-07-13T11:43:34;24.20;70.10
8707;DHT22;4390;49.302;9.306;2023-07-13T11:46:14;24.20;70.20
8707;DHT22;4390;49.302;9.306;2023-07-13T11:48:41;24.20;70.10
8707;DHT22;4390;49.302;9.306;2023-07-13T11:51:33;24.30;70.30
8707;DHT22;4390;49.302;9.306;2023-07-13T11:54:10;24.20;70.30
8707;DHT22;4390;49.302;9.306;2023-07-13T11:56:39;24.20;70.60
8707;DHT22;4390;49.302;9.306;2023-07-13T11:59:11;24.20;70.70
8707;DHT22;4390;49.302;9.306;2023-07-13T12:01:52;24.10;70.80
8707;DHT22;4390;49.302;9.306;2023-07-13T12:04:34;24.20;70.90
8707;DHT22;4390;49.302;9.306;2023-07-13T12:07:15;24.30;70.60
8707;DHT22;4390;49.302;9.306;2023-07-13T12:09:42;24.30;70.70
8707;DHT22;4390;49.302;9.306;2023-07-13T12:12:12;24.30;70.70
8707;DHT22;4390;49.302;9.306;2023-07-13T12:14:40;24.30;70.80
8707;DHT22;4390;49.302;9.306;2023-07-13T12:17:19;24.20;71.30
8707;DHT22;4390;49.302;9.306;2023-07-13T12:19:48;24.30;71.60
8707;DHT22;4390;49.302;9.306;2023-07-13T12:22:17;24.40;71.70
8707;DHT22;4390;49.302;9.306;2023-07-13T12:24:45;24.40;71.70
8707;DHT22;4390;49.302;9.306;2023-07-13T12:27:24;24.40;71.60
8707;DHT22;4390;49.302;9.306;2023-07-13T12:29:58;24.50;71.10
8707;DHT22;4390;49.302;9.306;2023-07-13T12:32:26;24.50;71.40
8707;DHT22;4390;49.302;9.306;2023-07-13T12:34:55;24.50;71.00
8707;DHT22;4390;49.302;9.306;2023-07-13T12:37:24;24.50;71.10
8707;DHT22;4390;49.302;9.306;2023-07-13T12:39:51;24.50;71.00
8707;DHT22;4390;49.302;9.306;2023-07-13T12:42:24;24.60;71.00
8707;DHT22;4390;49.302;9.306;2023-07-13T12:47:50;24.50;70.80
8707;DHT22;4390;49.302;9.306;2023-07-13T12:50:23;24.60;70.90
8707;DHT22;4390;49.302;9.306;2023-07-13T12:53:01;24.70;70.90
8707;DHT22;4390;49.302;9.306;2023-07-13T12:55:30;24.70;70.40
8707;DHT22;4390;49.302;9.306;2023-07-13T12:58:03;24.80;70.30
8707;DHT22;4390;49.302;9.306;2023-07-13T13:00:35;24.80;69.90
8707;DHT22;4390;49.302;9.306;2023-07-13T13:03:26;24.70;69.70
8707;DHT22;4390;49.302;9.306;2023-07-13T13:06:05;24.80;70.00
8707;DHT22;4390;49.302;9.306;2023-07-13T13:08:37;24.80;70.30
8707;DHT22;4390;49.302;9.306;2023-07-13T13:11:04;24.80;70.30
8707;DHT22;4390;49.302;9.306;2023-07-13T13:13:31;24.70;70.40
8707;DHT22;4390;49.302;9.306;2023-07-13T13:16:04;24.60;70.50
8707;DHT22;4390;49.302;9.306;2023-07-13T13:18:34;24.60;70.40
8707;DHT22;4390;49.302;9.306;2023-07-13T13:21:02;24.70;70.40
8707;DHT22;4390;49.302;9.306;2023-07-13T13:23:29;24.80;70.20
8707;DHT22;4390;49.302;9.306;2023-07-13T13:25:56;24.80;69.80
8707;DHT22;4390;49.302;9.306;2023-07-13T13:28:23;24.80;70.00
8707;DHT22;4390;49.302;9.306;2023-07-13T13:30:50;24.80;69.90
8707;DHT22;4390;49.302;9.306;2023-07-13T13:33:19;24.80;69.90
8707;DHT22;4390;49.302;9.306;2023-07-13T13:35:46;24.80;69.70
8707;DHT22;4390;49.302;9.306;2023-07-13T13:38:15;24.70;70.20
8707;DHT22;4390;49.302;9.306;2023-07-13T13:40:43;24.90;69.70
8707;DHT22;4390;49.302;9.306;2023-07-13T13:45:43;24.90;69.40
8707;DHT22;4390;49.302;9.306;2023-07-13T13:48:34;24.90;69.20
8707;DHT22;4390;49.302;9.306;2023-07-13T13:51:18;25.00;68.90
8707;DHT22;4390;49.302;9.306;2023-07-13T13:53:47;25.00;69.10
8707;DHT22;4390;49.302;9.306;2023-07-13T13:56:15;25.00;68.90
8707;DHT22;4390;49.302;9.306;2023-07-13T13:58:42;25.00;69.10
8707;DHT22;4390;49.302;9.306;2023-07-13T14:01:14;25.00;69.10
8707;DHT22;4390;49.302;9.306;2023-07-13T14:03:43;25.00;68.90
8707;DHT22;4390;49.302;9.306;2023-07-13T14:06:12;25.00;69.20
8707;DHT22;4390;49.302;9.306;2023-07-13T14:08:40;25.10;69.10
8707;DHT22;4390;49.302;9.306;2023-07-13T14:11:12;25.10;68.90
8707;DHT22;4390;49.302;9.306;2023-07-13T14:13:43;25.10;68.50
8707;DHT22;4390;49.302;9.306;2023-07-13T14:16:13;25.10;68.70
8707;DHT22;4390;49.302;9.306;2023-07-13T14:18:41;25.00;68.50
8707;DHT22;4390;49.302;9.306;2023-07-13T14:21:13;25.00;68.60
8707;DHT22;4390;49.302;9.306;2023-07-13T14:23:41;24.90;68.70
8707;DHT22;4390;49.302;9.306;2023-07-13T14:26:17;25.00;68.70
8707;DHT22;4390;49.302;9.306;2023-07-13T14:28:47;25.00;68.70
8707;DHT22;4390;49.302;9.306;2023-07-13T14:31:16;25.00;68.40
8707;DHT22;4390;49.302;9.306;2023-07-13T14:33:44;24.90;68.30
8707;DHT22;4390;49.302;9.306;2023-07-13T14:36:33;24.90;68.60
8707;DHT22;4390;49.302;9.306;2023-07-13T14:39:10;25.00;68.50
8707;DHT22;4390;49.302;9.306;2023-07-13T14:41:38;25.00;68.40
8707;DHT22;4390;49.302;9.306;2023-07-13T14:44:11;24.90;68.40
8707;DHT22;4390;49.302;9.306;2023-07-13T14:46:39;24.90;68.40
8707;DHT22;4390;49.302;9.306;2023-07-13T14:52:13;24.90;67.70
8707;DHT22;4390;49.302;9.306;2023-07-13T14:54:41;24.90;67.70
8707;DHT22;4390;49.302;9.306;2023-07-13T14:57:18;24.90;67.80
8707;DHT22;4390;49.302;9.306;2023-07-13T14:59:46;24.90;68.10
8707;DHT22;4390;49.302;9.306;2023-07-13T15:02:25;25.00;68.00
8707;DHT22;4390;49.302;9.306;2023-07-13T15:04:53;25.00;68.00
8707;DHT22;4390;49.302;9.306;2023-07-13T15:07:21;24.90;68.10
8707;DHT22;4390;49.302;9.306;2023-07-13T15:09:50;24.80;68.40
8707;DHT22;4390;49.302;9.306;2023-07-13T15:12:19;24.90;68.50
8707;DHT22;4390;49.302;9.306;2023-07-13T15:14:46;24.90;68.50
8707;DHT22;4390;49.302;9.306;2023-07-13T15:17:31;24.90;68.60
8707;DHT22;4390;49.302;9.306;2023-07-13T15:20:00;24.90;68.20
8707;DHT22;4390;49.302;9.306;2023-07-13T15:22:26;24.90;68.20
8707;DHT22;4390;49.302;9.306;2023-07-13T15:24:53;25.00;68.40
8707;DHT22;4390;49.302;9.306;2023-07-13T15:27:24;25.00;68.40
8707;DHT22;4390;49.302;9.306;2023-07-13T15:29:51;25.10;68.60
8707;DHT22;4390;49.302;9.306;2023-07-13T15:32:18;25.10;68.40
8707;DHT22;4390;49.302;9.306;2023-07-13T15:34:46;25.10;68.50
8707;DHT22;4390;49.302;9.306;2023-07-13T15:37:16;25.10;68.30
8707;DHT22;4390;49.302;9.306;2023-07-13T15:39:43;25.10;68.30
8707;DHT22;4390;49.302;9.306;2023-07-13T15:42:15;25.20;68.20
8707;DHT22;4390;49.302;9.306;2023-07-13T15:44:42;25.20;68.10
8707;DHT22;4390;49.302;9.306;2023-07-13T15:47:11;25.10;68.30
8707;DHT22;4390;49.302;9.306;2023-07-13T15:49:39;25.10;68.30
8707;DHT22;4390;49.302;9.306;2023-07-13T15:52:17;25.20;68.30
8707;DHT22;4390;49.302;9.306;2023-07-13T15:54:46;25.20;68.20
8707;DHT22;4390;49.302;9.306;2023-07-13T15:57:14;25.20;68.30
8707;DHT22;4390;49.302;9.306;2023-07-13T15:59:41;25.30;68.30
8707;DHT22;4390;49.302;9.306;2023-07-13T16:02:20;25.30;68.60
8707;DHT22;4390;49.302;9.306;2023-07-13T16:04:47;25.20;68.60
8707;DHT22;4390;49.302;9.306;2023-07-13T16:07:16;25.20;68.60
8707;DHT22;4390;49.302;9.306;2023-07-13T16:09:44;25.20;68.70
8707;DHT22;4390;49.302;9.306;2023-07-13T16:12:13;25.10;68.90
8707;DHT22;4390;49.302;9.306;2023-07-13T16:14:40;25.20;68.90
8707;DHT22;4390;49.302;9.306;2023-07-13T16:17:10;25.20;68.90
8707;DHT22;4390;49.302;9.306;2023-07-13T16:19:38;25.20;69.10
8707;DHT22;4390;49.302;9.306;2023-07-13T16:22:08;25.20;69.20
8707;DHT22;4390;49.302;9.306;2023-07-13T16:24:40;25.20;69.20
8707;DHT22;4390;49.302;9.306;2023-07-13T16:27:09;25.30;69.60
8707;DHT22;4390;49.302;9.306;2023-07-13T16:29:35;25.30;69.50
8707;DHT22;4390;49.302;9.306;2023-07-13T16:32:11;25.30;69.70
8707;DHT22;4390;49.302;9.306;2023-07-13T16:34:40;25.40;69.80
8707;DHT22;4390;49.302;9.306;2023-07-13T16:37:17;25.30;69.60
8707;DHT22;4390;49.302;9.306;2023-07-13T16:39:51;25.30;69.30
8707;DHT22;4390;49.302;9.306;2023-07-13T16:42:22;25.30;69.50
8707;DHT22;4390;49.302;9.306;2023-07-13T16:44:48;25.40;69.20
8707;DHT22;4390;49.302;9.306;2023-07-13T16:47:17;25.30;68.90
8707;DHT22;4390;49.302;9.306;2023-07-13T16:49:45;25.40;69.40
8707;DHT22;4390;49.302;9.306;2023-07-13T16:52:16;25.30;69.40
8707;DHT22;4390;49.302;9.306;2023-07-13T16:54:47;25.20;69.60